Time;durP1;ratioP1;P1;durP2;ratioP2;P2;SDS_P1;SDS_P2;PMS_P1;PMS_P2;Temp;Humidity;BMP_temperature;BMP_pressure;BME280_temperature;BME280_humidity;BME280_pressure;Samples;Min_cycle;Max_cycle;Signal;HPM_P1;HPM_P2
2023/06/20 00:00:09;;;;;;;11.70;8.65;;;;;;;26.34;49.57;100180.31;5070589;28;20045;-66
2023/06/20 00:02:38;;;;;;;9.35;8.20;;;;;;;26.36;49.61;100175.53;5070840;28;20040;-66
2023/06/20 00:05:06;;;;;;;10.52;8.48;;;;;;;26.35;49.52;100171.09;5070719;28;20481;-65
2023/06/20 00:07:36;;;;;;;10.68;8.07;;;;;;;26.33;49.53;100174.00;5070799;28;20060;-66
2023/06/20 00:10:05;;;;;;;11.57;8.02;;;;;;;26.32;49.93;100174.22;5070601;28;20051;-66
2023/06/20 00:12:33;;;;;;;11.73;8.55;;;;;;;26.32;49.70;100176.94;5073629;28;20136;-66
2023/06/20 00:15:02;;;;;;;9.93;8.30;;;;;;;26.28;49.76;100183.84;5074124;28;20074;-66
2023/06/20 00:17:30;;;;;;;10.63;8.35;;;;;;;26.25;50.26;100180.47;5074222;28;20045;-66
2023/06/20 00:19:58;;;;;;;10.10;8.23;;;;;;;26.25;49.94;100179.63;5074373;28;20048;-66
2023/06/20 00:22:26;;;;;;;9.90;8.00;;;;;;;26.24;49.96;100181.50;5074106;28;20449;-65
2023/06/20 00:24:56;;;;;;;10.77;8.55;;;;;;;26.25;50.41;100193.31;5073992;28;20080;-65
2023/06/20 00:27:24;;;;;;;12.05;9.07;;;;;;;26.24;50.33;100186.13;5074104;28;20045;-65
2023/06/20 00:29:52;;;;;;;11.55;8.40;;;;;;;26.16;50.44;100187.13;5073925;28;20044;-66
2023/06/20 00:32:21;;;;;;;10.82;8.77;;;;;;;26.11;50.17;100191.47;5074043;28;20074;-66
2023/06/20 00:34:49;;;;;;;9.98;8.30;;;;;;;26.06;50.55;100189.31;5073838;28;20114;-66
2023/06/20 00:37:17;;;;;;;10.05;8.25;;;;;;;26.03;50.26;100195.16;5073861;28;20096;-66
2023/06/20 00:39:46;;;;;;;10.40;7.78;;;;;;;26.02;50.04;100193.47;5074169;28;20052;-66
2023/06/20 00:42:19;;;;;;;9.70;7.93;;;;;;;26.05;50.26;100186.75;5073792;28;20394;-66
2023/06/20 00:44:47;;;;;;;9.27;7.50;;;;;;;26.05;50.23;100182.13;5073812;28;20055;-66
2023/06/20 00:47:17;;;;;;;8.80;7.68;;;;;;;26.06;49.98;100183.88;5073701;28;20127;-67
2023/06/20 00:49:47;;;;;;;10.13;7.95;;;;;;;26.07;49.90;100190.19;5073466;28;20055;-66
2023/06/20 00:52:18;;;;;;;9.05;7.40;;;;;;;26.05;50.03;100195.81;5073683;28;20148;-66
2023/06/20 00:54:47;;;;;;;11.05;7.65;;;;;;;26.04;49.60;100196.84;5073652;28;20059;-66
2023/06/20 00:57:17;;;;;;;9.30;7.50;;;;;;;26.01;49.83;100197.25;5073404;28;20055;-66
2023/06/20 00:59:47;;;;;;;9.10;7.60;;;;;;;25.98;49.54;100197.66;5073349;28;20159;-65
2023/06/20 01:02:16;;;;;;;8.52;6.90;;;;;;;25.97;49.58;100195.97;5073178;28;20095;-66
2023/06/20 01:04:46;;;;;;;8.88;7.57;;;;;;;25.92;49.31;100201.13;5073263;28;20574;-65
2023/06/20 01:07:24;;;;;;;9.88;6.75;;;;;;;25.89;49.06;100201.53;5073418;28;20148;-66
2023/06/20 01:10:01;;;;;;;9.52;7.22;;;;;;;25.87;49.29;100206.34;5073308;28;20126;-65
2023/06/20 01:12:36;;;;;;;9.68;7.30;;;;;;;25.86;49.30;100205.47;5073205;28;20045;-66
2023/06/20 01:15:14;;;;;;;8.68;7.05;;;;;;;25.87;49.36;100200.88;5073103;28;20084;-67
2023/06/20 01:17:49;;;;;;;8.57;6.72;;;;;;;25.88;48.88;100202.56;5073204;28;20047;-67
2023/06/20 01:20:27;;;;;;;9.10;7.38;;;;;;;25.84;49.05;100209.44;5073105;28;20079;-67
2023/06/20 01:23:04;;;;;;;8.48;7.10;;;;;;;25.82;49.21;100208.78;5072845;28;20087;-66
2023/06/20 01:25:43;;;;;;;8.88;7.15;;;;;;;25.83;48.82;100207.75;5072891;28;20060;-66
2023/06/20 01:28:20;;;;;;;7.88;6.78;;;;;;;25.82;48.87;100200.59;5072983;28;20056;-66
2023/06/20 01:30:56;;;;;;;8.65;6.38;;;;;;;25.81;49.07;100198.91;5072891;28;20040;-67
2023/06/20 01:33:28;;;;;;;8.43;6.85;;;;;;;25.79;49.01;100201.00;5072698;28;20055;-66
2023/06/20 01:35:59;;;;;;;8.43;6.85;;;;;;;25.73;48.99;100199.88;5072914;28;20055;-66
2023/06/20 01:38:31;;;;;;;8.77;6.63;;;;;;;25.73;48.97;100188.09;5072656;28;20083;-66
2023/06/20 01:41:02;;;;;;;9.38;6.60;;;;;;;25.74;48.99;100184.31;5082084;28;20044;-67
2023/06/20 01:43:32;;;;;;;8.32;6.38;;;;;;;25.71;49.10;100177.38;5092846;28;20051;-66
2023/06/20 01:46:03;;;;;;;9.02;6.60;;;;;;;25.68;49.08;100178.56;5092709;28;20055;-66
2023/06/20 01:48:34;;;;;;;8.32;6.60;;;;;;;25.70;49.17;100189.34;5092526;28;20127;-66
2023/06/20 01:51:03;;;;;;;8.25;6.40;;;;;;;25.66;49.08;100187.97;5092760;28;20051;-66
2023/06/20 01:53:34;;;;;;;9.07;6.72;;;;;;;25.64;49.24;100188.16;5092722;28;20048;-67
2023/06/20 01:56:04;;;;;;;8.55;6.78;;;;;;;25.63;49.06;100177.44;5092482;28;20044;-67
2023/06/20 01:58:34;;;;;;;8.77;6.20;;;;;;;25.62;48.86;100184.78;5092635;28;20044;-66
2023/06/20 02:01:03;;;;;;;10.38;6.93;;;;;;;25.62;48.91;100181.22;5092674;28;20062;-67
2023/06/20 02:03:33;;;;;;;8.25;6.65;;;;;;;25.62;49.26;100181.22;5092476;28;20349;-67
2023/06/20 02:06:02;;;;;;;8.43;6.40;;;;;;;25.61;49.09;100185.00;5092506;28;20072;-67
2023/06/20 02:08:34;;;;;;;8.50;6.95;;;;;;;25.61;49.02;100185.81;5092281;28;20048;-67
2023/06/20 02:11:03;;;;;;;7.88;6.63;;;;;;;25.61;49.23;100185.81;5092206;28;20111;-67
2023/06/20 02:13:33;;;;;;;6.75;5.82;;;;;;;25.61;49.10;100185.00;5092010;28;20136;-67
2023/06/20 02:16:03;;;;;;;8.00;6.30;;;;;;;25.59;49.12;100185.19;5092148;28;20052;-66
2023/06/20 02:18:32;;;;;;;10.10;6.72;;;;;;;25.59;48.97;100182.44;5092207;28;20060;-67
2023/06/20 02:21:05;;;;;;;8.55;6.35;;;;;;;25.56;49.07;100188.28;5092157;28;20451;-67
2023/06/20 02:23:39;;;;;;;9.52;7.13;;;;;;;25.56;49.26;100201.09;5091932;28;20062;-67
2023/06/20 02:26:15;;;;;;;8.38;6.72;;;;;;;25.50;49.09;100194.53;5092055;28;20091;-67
2023/06/20 02:28:48;;;;;;;8.23;6.30;;;;;;;25.49;49.11;100191.97;5092087;28;20409;-67
2023/06/20 02:31:20;;;;;;;8.77;6.70;;;;;;;25.48;48.97;100196.59;5091881;28;20075;-67
2023/06/20 02:33:51;;;;;;;8.27;6.50;;;;;;;25.47;49.06;100202.22;5091801;28;20054;-67
2023/06/20 02:36:24;;;;;;;8.15;6.35;;;;;;;25.47;49.39;100196.75;5091813;28;20047;-67
2023/06/20 02:38:54;;;;;;;7.38;6.57;;;;;;;25.44;48.84;100194.41;5092033;28;20751;-67
2023/06/20 02:41:22;;;;;;;7.88;6.50;;;;;;;25.45;48.97;100199.69;5091779;28;20040;-67
2023/06/20 02:43:51;;;;;;;8.05;6.43;;;;;;;25.46;49.13;100198.66;5091699;28;20051;-67
2023/06/20 02:46:27;;;;;;;6.93;5.85;;;;;;;25.47;49.31;100207.69;5091788;28;20067;-67
2023/06/20 02:49:06;;;;;;;8.93;6.28;;;;;;;25.47;49.32;100199.50;5091582;28;20135;-67
2023/06/20 02:51:39;;;;;;;7.32;6.38;;;;;;;25.47;49.15;100194.88;5091694;28;20453;-67
2023/06/20 02:54:16;;;;;;;8.30;6.50;;;;;;;25.45;48.99;100207.03;5091833;28;20052;-67
2023/06/20 02:56:53;;;;;;;7.90;6.32;;;;;;;25.43;49.03;100201.75;5091618;28;20127;-67
2023/06/20 02:59:25;;;;;;;8.65;6.80;;;;;;;25.44;49.42;100200.72;5091405;28;20660;-67
2023/06/20 03:01:57;;;;;;;7.07;5.88;;;;;;;25.41;49.16;100206.56;5091585;28;20040;-67
2023/06/20 03:04:32;;;;;;;7.50;6.10;;;;;;;25.41;49.11;100217.50;5091598;28;20154;-67
2023/06/20 03:07:02;;;;;;;8.18;6.35;;;;;;;25.40;49.17;100215.81;5091439;28;20052;-67
2023/06/20 03:09:33;;;;;;;9.77;6.30;;;;;;;25.40;49.10;100215.81;5091509;28;20424;-67
2023/06/20 03:12:01;;;;;;;7.97;6.00;;;;;;;25.39;48.94;100208.66;5091304;28;20092;-67
2023/06/20 03:14:32;;;;;;;8.02;6.07;;;;;;;25.37;49.03;100200.63;5091234;28;20435;-67
2023/06/20 03:17:00;;;;;;;9.32;6.68;;;;;;;25.34;48.97;100211.09;5091442;28;20134;-67
2023/06/20 03:19:28;;;;;;;8.95;6.25;;;;;;;25.32;48.95;100218.63;5091396;28;20044;-66
2023/06/20 03:21:56;;;;;;;9.68;6.43;;;;;;;25.31;49.17;100219.66;5091170;28;21926;-67
2023/06/20 03:24:24;;;;;;;9.77;6.45;;;;;;;25.28;49.29;100228.22;5087100;28;20478;-67
2023/06/20 03:26:54;;;;;;;7.18;6.05;;;;;;;25.28;49.46;100228.22;5071189;28;20538;-67
2023/06/20 03:29:22;;;;;;;9.05;6.78;;;;;;;25.26;49.41;100231.13;5071236;28;20129;-67
2023/06/20 03:31:50;;;;;;;8.35;6.00;;;;;;;25.27;49.10;100229.25;5071096;28;20098;-67
2023/06/20 03:34:18;;;;;;;9.27;6.35;;;;;;;25.28;49.24;100233.66;5071151;28;20067;-67
2023/06/20 03:36:47;;;;;;;8.05;6.18;;;;;;;25.28;49.52;100239.13;5070999;28;20045;-67
2023/06/20 03:39:15;;;;;;;9.20;6.65;;;;;;;25.27;49.39;100232.81;5070872;28;20059;-67
2023/06/20 03:41:43;;;;;;;8.50;6.60;;;;;;;25.28;49.53;100234.53;5071192;28;20045;-67
2023/06/20 03:44:12;;;;;;;9.20;6.10;;;;;;;25.27;49.12;100240.16;5070994;28;20087;-66
2023/06/20 03:46:41;;;;;;;8.38;6.53;;;;;;;25.24;49.57;100241.41;5072518;28;20099;-67
2023/06/20 03:49:09;;;;;;;7.68;6.30;;;;;;;25.21;49.46;100238.22;5074748;28;20052;-67
2023/06/20 03:51:38;;;;;;;9.13;6.45;;;;;;;25.19;49.84;100246.59;5074780;28;20044;-67
2023/06/20 03:54:07;;;;;;;8.43;6.57;;;;;;;25.19;49.47;100256.63;5074842;28;20052;-67
2023/06/20 03:56:35;;;;;;;9.13;6.53;;;;;;;25.19;49.51;100256.63;5074762;28;20051;-66
2023/06/20 03:59:03;;;;;;;8.63;6.32;;;;;;;25.19;49.73;100251.16;5074530;28;20439;-66
2023/06/20 04:01:33;;;;;;;8.23;6.65;;;;;;;25.20;49.53;100252.91;5074588;28;20055;-67
2023/06/20 04:04:01;;;;;;;9.45;6.20;;;;;;;25.20;49.59;100250.16;5074335;28;20051;-67
2023/06/20 04:06:33;;;;;;;7.88;6.38;;;;;;;25.20;49.70;100248.28;5074469;28;20508;-67
2023/06/20 04:09:01;;;;;;;9.48;6.10;;;;;;;25.21;49.97;100249.13;5074473;28;20102;-66
2023/06/20 04:11:29;;;;;;;7.90;6.35;;;;;;;25.17;50.09;100250.53;5074304;28;20490;-66
2023/06/20 04:13:57;;;;;;;7.85;6.63;;;;;;;25.16;50.22;100251.56;5074098;28;20078;-66
2023/06/20 04:16:25;;;;;;;8.57;6.78;;;;;;;25.15;49.90;100263.50;5074285;28;20056;-67
2023/06/20 04:18:55;;;;;;;9.93;6.80;;;;;;;25.14;49.86;100259.09;5074031;28;20044;-67
2023/06/20 04:21:23;;;;;;;10.65;7.03;;;;;;;25.14;50.14;100264.53;5074273;28;20127;-67
2023/06/20 04:23:51;;;;;;;8.90;7.20;;;;;;;25.15;50.22;100266.25;5074111;28;20052;-66
2023/06/20 04:26:19;;;;;;;9.35;7.07;;;;;;;25.15;50.43;100263.50;5074099;28;20098;-67
2023/06/20 04:28:47;;;;;;;8.80;7.07;;;;;;;25.14;50.37;100254.47;5073868;28;20049;-67
2023/06/20 04:31:15;;;;;;;9.25;7.28;;;;;;;25.18;50.28;100254.94;5073722;28;20045;-66
2023/06/20 04:33:45;;;;;;;10.13;7.07;;;;;;;25.19;50.58;100257.50;5073925;28;20048;-66
2023/06/20 04:36:15;;;;;;;8.85;7.30;;;;;;;25.20;50.31;100255.63;5073915;28;20446;-65
2023/06/20 04:38:43;;;;;;;12.48;7.78;;;;;;;25.19;50.48;100251.16;5073962;28;20117;-66
2023/06/20 04:41:12;;;;;;;9.45;6.88;;;;;;;25.19;50.45;100256.63;5073778;28;20565;-66
2023/06/20 04:43:44;;;;;;;10.43;7.07;;;;;;;25.21;50.67;100260.03;5073756;28;20049;-66
2023/06/20 04:46:14;;;;;;;10.23;7.55;;;;;;;25.23;50.61;100263.44;5074093;28;20044;-66
2023/06/20 04:48:44;;;;;;;12.50;7.38;;;;;;;25.23;50.69;100257.97;5073645;28;20181;-66
2023/06/20 04:51:13;;;;;;;10.68;7.45;;;;;;;25.20;50.91;100244.72;5073578;28;20509;-66
2023/06/20 04:53:43;;;;;;;10.63;7.78;;;;;;;25.21;50.59;100243.66;5073586;28;20131;-66
2023/06/20 04:56:15;;;;;;;10.55;7.68;;;;;;;25.21;50.79;100243.66;5073566;28;20485;-66
2023/06/20 04:58:45;;;;;;;10.20;7.65;;;;;;;25.21;50.68;100243.66;5073075;28;20045;-66
2023/06/20 05:01:14;;;;;;;9.02;7.32;;;;;;;25.20;50.84;100250.16;5073547;28;20116;-66
2023/06/20 05:03:43;;;;;;;10.30;7.07;;;;;;;25.19;50.76;100252.06;5073292;28;20134;-66
2023/06/20 05:06:17;;;;;;;9.57;7.10;;;;;;;25.18;50.93;100266.69;5073190;28;20535;-67
2023/06/20 05:08:46;;;;;;;8.25;6.95;;;;;;;25.20;50.98;100266.53;5073159;28;20044;-66
2023/06/20 05:11:15;;;;;;;9.68;7.47;;;;;;;25.20;50.65;100263.81;5073171;28;20090;-67
2023/06/20 05:13:43;;;;;;;9.75;7.20;;;;;;;25.20;50.68;100261.94;5073151;28;20056;-67
2023/06/20 05:16:11;;;;;;;9.40;6.72;;;;;;;25.21;50.63;100268.22;5073036;28;20087;-67
2023/06/20 05:18:39;;;;;;;10.00;7.28;;;;;;;25.22;50.78;100267.19;5073062;28;20047;-67
2023/06/20 05:21:11;;;;;;;9.73;7.18;;;;;;;25.20;51.35;100274.72;5072965;28;20044;-67
2023/06/20 05:23:39;;;;;;;11.68;7.47;;;;;;;25.20;51.41;100269.28;5072780;28;20113;-66
2023/06/20 05:26:11;;;;;;;9.13;7.50;;;;;;;25.20;51.57;100282.91;5072375;28;20060;-68
2023/06/20 05:28:39;;;;;;;11.45;7.68;;;;;;;25.21;51.77;100276.41;5072537;28;20076;-66
2023/06/20 05:31:10;;;;;;;10.30;7.70;;;;;;;25.21;51.77;100281.88;5069411;28;20109;-66
2023/06/20 05:33:39;;;;;;;11.25;7.70;;;;;;;25.20;52.04;100281.03;5072151;28;20048;-66
2023/06/20 05:36:07;;;;;;;10.95;7.63;;;;;;;25.19;52.06;100281.19;5069393;28;20098;-67
2023/06/20 05:38:36;;;;;;;10.48;7.65;;;;;;;25.18;52.04;100276.78;5071833;28;20078;-67
2023/06/20 05:41:05;;;;;;;14.38;7.45;;;;;;;25.19;51.89;100270.28;5072239;28;20082;-68
2023/06/20 05:43:34;;;;;;;12.05;8.02;;;;;;;25.23;52.04;100279.81;5071839;28;20051;-66
2023/06/20 05:46:02;;;;;;;10.90;7.47;;;;;;;25.25;52.18;100277.72;5069129;28;20040;-66
2023/06/20 05:48:32;;;;;;;10.13;7.95;;;;;;;25.25;52.53;100281.31;5071697;28;20474;-67
2023/06/20 05:51:03;;;;;;;10.25;7.53;;;;;;;25.26;52.47;100274.81;5071695;28;20090;-64
2023/06/20 05:53:31;;;;;;;12.40;8.30;;;;;;;25.28;51.89;100275.47;5070686;28;20044;-66
2023/06/20 05:55:59;;;;;;;12.23;7.57;;;;;;;25.31;51.84;100277.00;5071722;28;20473;-67
2023/06/20 05:58:28;;;;;;;10.57;7.35;;;;;;;25.32;51.86;100281.41;5072093;28;20099;-65
2023/06/20 06:00:58;;;;;;;9.85;7.65;;;;;;;25.34;52.13;100282.06;5071906;28;20068;-66
2023/06/20 06:03:26;;;;;;;11.45;7.80;;;;;;;25.35;52.25;100278.31;5069359;28;20047;-65
2023/06/20 06:05:55;;;;;;;10.55;7.53;;;;;;;25.37;52.03;100271.63;5072020;28;20591;-67
2023/06/20 06:08:23;;;;;;;10.63;8.02;;;;;;;25.36;52.01;100280.84;5071762;28;20052;-67
2023/06/20 06:10:52;;;;;;;9.68;7.65;;;;;;;25.36;52.33;100285.47;5071468;28;20080;-67
2023/06/20 06:13:20;;;;;;;9.75;7.80;;;;;;;25.33;52.16;100291.31;5071787;28;20052;-66
2023/06/20 06:15:48;;;;;;;11.48;7.82;;;;;;;25.34;52.15;100293.00;5071461;28;20056;-67
2023/06/20 06:18:30;;;;;;;9.93;7.45;;;;;;;25.36;52.37;100301.84;5071636;28;20473;-67
2023/06/20 06:20:58;;;;;;;10.77;7.70;;;;;;;25.36;52.60;100296.38;5071284;28;20036;-66
2023/06/20 06:23:27;;;;;;;13.05;7.95;;;;;;;25.36;52.50;100310.03;5071685;28;20103;-66
2023/06/20 06:25:55;;;;;;;11.50;8.13;;;;;;;25.37;52.68;100309.00;5071624;28;20351;-66
2023/06/20 06:28:24;;;;;;;11.43;7.90;;;;;;;25.38;52.64;100305.22;5071626;28;20045;-63
2023/06/20 06:30:52;;;;;;;10.68;8.30;;;;;;;25.37;52.77;100303.53;5071599;28;20059;-67
2023/06/20 06:33:20;;;;;;;15.13;8.95;;;;;;;25.35;52.96;100302.88;5071318;28;20048;-67
2023/06/20 06:35:50;;;;;;;10.07;7.57;;;;;;;25.27;53.04;100301.06;5071597;28;20049;-67
2023/06/20 06:38:21;;;;;;;12.48;8.88;;;;;;;25.26;53.56;100309.44;5071508;28;20080;-67
2023/06/20 06:40:54;;;;;;;11.05;8.40;;;;;;;25.25;53.28;100305.03;5071460;28;20456;-67
2023/06/20 06:43:23;;;;;;;12.82;8.68;;;;;;;25.23;53.45;100304.38;5070465;28;20123;-67
2023/06/20 06:45:51;;;;;;;12.73;8.32;;;;;;;25.21;53.58;100307.28;5070931;28;20055;-67
2023/06/20 06:48:19;;;;;;;14.68;8.75;;;;;;;25.23;53.37;100301.66;5071041;28;20044;-67
2023/06/20 06:50:47;;;;;;;12.45;8.02;;;;;;;25.24;53.54;100303.34;5071068;28;20052;-67
2023/06/20 06:53:17;;;;;;;9.85;7.70;;;;;;;25.26;53.71;100302.09;5070947;28;20048;-67
2023/06/20 06:55:47;;;;;;;11.57;7.65;;;;;;;25.27;53.67;100305.69;5070955;28;20486;-66
2023/06/20 06:58:18;;;;;;;11.43;8.18;;;;;;;25.25;53.67;100300.41;5071499;28;20055;-69
2023/06/20 07:00:46;;;;;;;10.95;7.82;;;;;;;25.25;53.69;100310.50;5071415;28;20114;-68
2023/06/20 07:03:15;;;;;;;11.02;8.32;;;;;;;25.28;53.79;100301.91;5071224;28;20473;-68
2023/06/20 07:05:43;;;;;;;13.82;7.97;;;;;;;25.33;53.79;100313.13;5071201;28;20087;-68
2023/06/20 07:08:11;;;;;;;13.98;8.50;;;;;;;25.37;53.81;100309.00;5070115;28;20135;-68
2023/06/20 07:10:41;;;;;;;12.90;8.18;;;;;;;25.40;53.75;100314.09;5071065;28;20049;-68
2023/06/20 07:13:09;;;;;;;11.65;8.73;;;;;;;25.45;53.97;100319.84;5071096;28;20044;-68
2023/06/20 07:15:37;;;;;;;11.40;8.02;;;;;;;25.47;54.02;100309.56;5031154;28;20055;-67
2023/06/20 07:18:07;;;;;;;12.85;8.27;;;;;;;25.52;53.94;100317.22;5029827;28;20045;-68
2023/06/20 07:20:35;;;;;;;10.15;7.82;;;;;;;25.54;53.83;100321.44;5032384;28;20041;-68
2023/06/20 07:23:04;;;;;;;11.80;7.82;;;;;;;25.57;53.73;100321.06;5035498;28;20053;-68
2023/06/20 07:25:32;;;;;;;10.70;7.70;;;;;;;25.59;53.75;100316.28;5035478;28;20053;-68
2023/06/20 07:28:01;;;;;;;11.13;7.85;;;;;;;25.61;53.42;100322.38;5035155;28;20071;-67
2023/06/20 07:30:30;;;;;;;9.93;7.75;;;;;;;25.63;53.74;100325.78;5035031;28;20049;-67
2023/06/20 07:32:59;;;;;;;12.75;7.68;;;;;;;25.66;53.65;100319.94;5035047;28;20491;-67
2023/06/20 07:35:27;;;;;;;10.70;7.70;;;;;;;25.69;54.08;100325.03;5035095;28;20056;-68
2023/06/20 07:37:55;;;;;;;11.70;7.78;;;;;;;25.72;53.76;100340.22;5035004;28;20119;-68
2023/06/20 07:40:24;;;;;;;11.18;7.93;;;;;;;25.71;53.06;100324.03;5034940;28;20049;-68
2023/06/20 07:42:52;;;;;;;10.88;8.05;;;;;;;25.71;53.02;100327.59;5034926;28;20048;-68
2023/06/20 07:45:21;;;;;;;13.60;7.72;;;;;;;25.71;53.45;100326.75;5034510;28;20483;-68
2023/06/20 07:47:50;;;;;;;12.98;8.07;;;;;;;25.73;53.45;100321.94;5034560;28;20077;-67
2023/06/20 07:50:18;;;;;;;10.73;7.65;;;;;;;25.76;53.34;100318.81;5034850;28;20053;-68
2023/06/20 07:52:46;;;;;;;11.68;8.38;;;;;;;25.78;53.67;100317.63;5034632;28;20049;-68
2023/06/20 07:55:15;;;;;;;11.20;7.80;;;;;;;25.81;53.40;100321.84;5034545;28;20153;-68
2023/06/20 07:57:57;;;;;;;10.30;7.70;;;;;;;25.84;53.71;100324.19;5034494;28;20045;-68
2023/06/20 08:00:28;;;;;;;9.88;7.90;;;;;;;25.85;53.60;100323.16;5034511;28;20052;-68
2023/06/20 08:02:56;;;;;;;10.77;7.90;;;;;;;25.87;53.43;100326.56;5034560;28;20108;-68
2023/06/20 08:05:25;;;;;;;10.27;7.65;;;;;;;25.89;53.47;100314.41;5033165;28;20132;-68
2023/06/20 08:07:54;;;;;;;11.75;7.90;;;;;;;25.93;53.15;100320.34;5034406;28;20042;-68
2023/06/20 08:10:22;;;;;;;9.82;7.07;;;;;;;25.94;52.97;100322.03;5034400;28;20049;-69
2023/06/20 08:12:50;;;;;;;9.48;7.18;;;;;;;25.97;52.87;100327.13;5034250;28;20053;-68
2023/06/20 08:15:18;;;;;;;10.40;7.72;;;;;;;26.01;52.61;100333.88;5069167;28;20520;-68
2023/06/20 08:17:48;;;;;;;11.40;7.20;;;;;;;26.02;53.01;100335.59;5074211;28;20098;-68
2023/06/20 08:20:17;;;;;;;11.00;7.55;;;;;;;26.04;52.67;100338.97;5074056;28;20053;-68
2023/06/20 08:22:45;;;;;;;12.35;7.60;;;;;;;26.05;52.81;100339.81;5074105;28;20051;-67
2023/06/20 08:25:13;;;;;;;11.73;7.93;;;;;;;26.06;52.64;100330.59;5074096;28;20105;-67
2023/06/20 08:27:41;;;;;;;12.38;7.95;;;;;;;26.09;53.24;100328.31;5072595;28;20040;-67
2023/06/20 08:30:11;;;;;;;9.13;7.55;;;;;;;26.11;52.94;100325.41;5073958;28;20049;-68
2023/06/20 08:32:42;;;;;;;10.98;7.85;;;;;;;26.12;52.77;100325.19;5073386;28;20075;-68
2023/06/20 08:35:11;;;;;;;9.70;7.45;;;;;;;26.15;52.75;100318.50;5073769;28;20055;-68
2023/06/20 08:37:41;;;;;;;10.73;7.47;;;;;;;26.17;52.81;100324.66;5073733;28;20486;-68
2023/06/20 08:40:12;;;;;;;9.05;7.25;;;;;;;26.18;52.32;100318.97;5073631;28;20047;-67
2023/06/20 08:42:43;;;;;;;11.45;7.28;;;;;;;26.19;52.57;100317.94;5073716;28;20049;-67
2023/06/20 08:45:12;;;;;;;9.50;8.02;;;;;;;26.21;52.28;100317.75;5073599;28;20058;-67
2023/06/20 08:47:40;;;;;;;10.27;7.20;;;;;;;26.22;52.51;100320.28;5073606;28;20048;-67
2023/06/20 08:50:09;;;;;;;11.20;7.43;;;;;;;26.24;52.36;100318.19;5073657;28;20049;-66
2023/06/20 08:52:46;;;;;;;11.18;7.68;;;;;;;26.27;52.47;100316.13;5073469;28;20055;-67
2023/06/20 08:55:15;;;;;;;10.43;7.57;;;;;;;26.29;52.03;100314.06;5073552;28;20508;-68
2023/06/20 08:57:45;;;;;;;10.25;7.20;;;;;;;26.31;51.84;100309.22;5072438;28;20048;-68
2023/06/20 09:00:17;;;;;;;10.05;7.30;;;;;;;26.34;51.02;100314.31;5073743;28;20131;-67
2023/06/20 09:02:45;;;;;;;10.38;7.75;;;;;;;26.36;50.83;100304.88;5073770;28;20091;-68
2023/06/20 09:05:13;;;;;;;11.30;7.40;;;;;;;26.38;51.00;100299.25;5073048;28;20084;-68
2023/06/20 09:07:44;;;;;;;10.93;7.35;;;;;;;26.39;50.30;100310.00;5073400;28;20052;-68
2023/06/20 09:10:14;;;;;;;11.40;7.63;;;;;;;26.42;50.01;100308.75;5073400;28;20113;-68
2023/06/20 09:12:46;;;;;;;9.20;7.05;;;;;;;26.42;49.95;100298.66;5073112;28;20048;-68
2023/06/20 09:15:15;;;;;;;;;;;;;;;26.45;49.66;100301.03;5073497;28;20494;-68
2023/06/20 09:17:43;;;;;;;10.52;7.25;;;;;;;26.46;49.39;100302.72;5072901;28;19921;-68
2023/06/20 09:20:14;;;;;;;9.57;6.97;;;;;;;26.48;49.55;100305.25;5073028;28;20458;-68
2023/06/20 09:22:45;;;;;;;8.60;6.80;;;;;;;26.49;49.71;100312.41;5073030;28;20124;-68
2023/06/20 09:25:19;;;;;;;9.27;7.07;;;;;;;26.50;49.41;100312.22;5072824;28;20048;-68
2023/06/20 09:27:48;;;;;;;9.60;7.20;;;;;;;26.51;49.70;100302.97;5072850;28;20097;-68
2023/06/20 09:30:16;;;;;;;9.85;7.00;;;;;;;26.53;49.34;100302.75;5072858;28;20435;-68
2023/06/20 09:32:45;;;;;;;8.10;6.47;;;;;;;26.55;49.49;100305.34;5073092;28;20136;-68
2023/06/20 09:35:15;;;;;;;10.32;7.07;;;;;;;26.57;49.34;100301.34;5072680;28;20076;-68
2023/06/20 09:37:47;;;;;;;8.90;6.78;;;;;;;26.60;48.16;100306.41;5072924;28;20402;-68
2023/06/20 09:40:17;;;;;;;8.68;6.63;;;;;;;26.60;48.15;100300.94;5072670;28;20048;-68
2023/06/20 09:42:47;;;;;;;10.10;7.30;;;;;;;26.63;47.80;100305.19;5072462;28;20048;-68
2023/06/20 09:45:17;;;;;;;8.95;7.35;;;;;;;26.65;47.86;100303.13;5071283;28;20365;-69
2023/06/20 09:47:45;;;;;;;8.70;7.00;;;;;;;26.68;47.28;100302.72;5072573;28;20114;-68
2023/06/20 09:50:16;;;;;;;8.75;7.60;;;;;;;26.71;47.23;100303.16;5072441;28;20462;-69
2023/06/20 09:52:53;;;;;;;9.65;7.22;;;;;;;26.73;47.51;100303.84;5072258;28;20077;-68
2023/06/20 09:55:24;;;;;;;15.48;7.10;;;;;;;26.76;47.20;100300.69;5072227;28;20051;-68
2023/06/20 09:57:54;;;;;;;8.57;6.72;;;;;;;26.77;47.35;100302.38;5072488;28;20049;-68
2023/06/20 10:00:26;;;;;;;7.60;6.72;;;;;;;26.78;47.41;100304.06;5072359;28;20040;-68
2023/06/20 10:03:00;;;;;;;9.73;7.07;;;;;;;26.79;48.57;100302.19;5071925;28;20115;-68
2023/06/20 10:05:29;;;;;;;8.25;6.97;;;;;;;26.81;48.57;100302.81;5072077;28;20052;-68
2023/06/20 10:08:00;;;;;;;9.90;7.03;;;;;;;26.83;46.60;100300.78;5071849;28;20048;-68
2023/06/20 10:10:28;;;;;;;10.02;6.63;;;;;;;26.85;45.40;100297.84;5071885;28;20052;-68
2023/06/20 10:12:57;;;;;;;10.80;6.72;;;;;;;26.88;44.98;100300.16;5071660;28;20048;-68
2023/06/20 10:15:26;;;;;;;9.80;7.00;;;;;;;26.91;43.49;100302.50;5071567;28;20052;-68
2023/06/20 10:17:54;;;;;;;9.55;6.80;;;;;;;26.93;43.74;100297.69;5072137;28;20473;-68
2023/06/20 10:20:28;;;;;;;9.27;6.63;;;;;;;26.95;44.47;100298.34;5071715;28;20072;-68
2023/06/20 10:23:00;;;;;;;7.53;6.57;;;;;;;26.98;45.74;100295.19;5071708;28;20044;-68
2023/06/20 10:25:28;;;;;;;9.27;6.85;;;;;;;26.98;45.58;100292.47;5072222;28;20116;-68
2023/06/20 10:27:58;;;;;;;7.63;6.25;;;;;;;27.01;44.44;100292.91;5072194;28;20079;-68
2023/06/20 10:30:56;;;;;;;7.72;6.65;;;;;;;27.03;43.39;100295.50;5071756;28;20048;-68
2023/06/20 10:33:30;;;;;;;8.20;6.43;;;;;;;27.08;43.07;100293.00;5072295;28;20114;-68
2023/06/20 10:35:59;;;;;;;8.55;6.90;;;;;;;27.10;42.67;100302.69;5071720;28;20052;-69
2023/06/20 10:38:30;;;;;;;10.27;6.53;;;;;;;27.12;43.26;100291.56;5071508;28;20486;-67
2023/06/20 10:41:09;;;;;;;8.38;6.95;;;;;;;27.14;44.19;100288.63;5071566;28;20410;-67
2023/06/20 10:43:51;;;;;;;7.00;6.18;;;;;;;27.16;44.37;100292.00;5071453;28;20620;-67
2023/06/20 10:46:21;;;;;;;8.63;6.70;;;;;;;27.16;44.13;100284.63;5071720;28;20143;-68
2023/06/20 10:48:49;;;;;;;7.82;6.22;;;;;;;27.18;44.89;100281.69;5071600;28;20059;-67
2023/06/20 10:51:17;;;;;;;7.68;6.78;;;;;;;27.20;45.24;100283.19;5071815;28;20047;-67
2023/06/20 10:53:47;;;;;;;7.93;6.75;;;;;;;27.21;45.00;100282.13;5071311;28;20531;-67
2023/06/20 10:56:23;;;;;;;9.30;7.07;;;;;;;27.26;44.05;100285.13;5070956;28;20076;-68
2023/06/20 10:58:51;;;;;;;8.85;6.53;;;;;;;27.31;43.47;100270.81;5071550;28;20048;-68
2023/06/20 11:01:20;;;;;;;7.90;6.47;;;;;;;27.32;43.98;100275.28;5071314;28;20398;-67
2023/06/20 11:03:49;;;;;;;7.90;6.40;;;;;;;27.34;44.69;100270.44;5071355;28;20048;-68
2023/06/20 11:06:17;;;;;;;9.45;6.40;;;;;;;27.36;44.76;100273.81;5071770;28;20052;-68
2023/06/20 11:08:47;;;;;;;11.65;7.35;;;;;;;27.38;44.83;100269.81;5071196;28;20117;-67
2023/06/20 11:11:15;;;;;;;8.43;6.32;;;;;;;27.47;43.12;100269.66;5071482;28;20375;-67
2023/06/20 11:13:44;;;;;;;8.55;7.20;;;;;;;27.54;41.85;100256.88;5071140;28;20045;-67
2023/06/20 11:16:20;;;;;;;8.25;6.40;;;;;;;27.59;41.78;100266.16;5071317;28;20060;-68
2023/06/20 11:18:48;;;;;;;9.73;6.70;;;;;;;27.62;42.02;100256.72;5071194;28;20068;-67
2023/06/20 11:21:16;;;;;;;9.35;6.60;;;;;;;27.68;41.39;100250.44;5070990;28;20052;-67
2023/06/20 11:23:45;;;;;;;9.57;6.90;;;;;;;27.73;41.69;100250.69;5071216;28;20048;-67
2023/06/20 11:26:14;;;;;;;9.60;7.00;;;;;;;27.78;41.01;100250.03;5070862;28;20549;-68
2023/06/20 11:28:42;;;;;;;8.23;6.72;;;;;;;27.84;40.54;100260.19;5069913;28;20094;-67
2023/06/20 11:31:11;;;;;;;7.53;6.72;;;;;;;27.87;40.90;100248.81;5071363;28;20041;-67
2023/06/20 11:33:39;;;;;;;7.88;6.45;;;;;;;27.88;40.91;100245.88;5070875;28;20186;-67